sensor_id;sensor_type;location;lat;lon;timestamp;pressure;altitude;pressure_sealevel;temperature;humidity
59063;BME280;44851;45.648;9.004;2022-08-25T00:01:01;99042.50;;;24.43;45.40
59063;BME280;44851;45.648;9.004;2022-08-25T00:03:26;99041.41;;;24.32;45.30
59063;BME280;44851;45.648;9.004;2022-08-25T00:05:52;99038.19;;;24.30;45.63
59063;BME280;44851;45.648;9.004;2022-08-25T00:08:17;99044.19;;;24.26;45.28
59063;BME280;44851;45.648;9.004;2022-08-25T00:10:42;99047.66;;;24.26;45.85
59063;BME280;44851;45.648;9.004;2022-08-25T00:13:08;99043.50;;;24.30;45.75
59063;BME280;44851;45.648;9.004;2022-08-25T00:15:34;99046.47;;;24.22;46.04
59063;BME280;44851;45.648;9.004;2022-08-25T00:18:00;99049.16;;;24.22;45.85
59063;BME280;44851;45.648;9.004;2022-08-25T00:20:27;99045.78;;;24.15;45.71
59063;BME280;44851;45.648;9.004;2022-08-25T00:22:53;99043.69;;;24.17;46.11
59063;BME280;44851;45.648;9.004;2022-08-25T00:25:20;99050.19;;;24.21;45.79
59063;BME280;44851;45.648;9.004;2022-08-25T00:27:49;99047.66;;;24.26;45.63
59063;BME280;44851;45.648;9.004;2022-08-25T00:30:15;99040.88;;;24.12;45.70
59063;BME280;44851;45.648;9.004;2022-08-25T00:32:41;99041.25;;;24.16;45.85
59063;BME280;44851;45.648;9.004;2022-08-25T00:35:07;99044.44;;;24.24;45.86
59063;BME280;44851;45.648;9.004;2022-08-25T00:37:32;99047.16;;;24.18;45.92
59063;BME280;44851;45.648;9.004;2022-08-25T00:39:58;99051.00;;;24.22;45.47
59063;BME280;44851;45.648;9.004;2022-08-25T00:42:24;99052.28;;;24.19;45.63
59063;BME280;44851;45.648;9.004;2022-08-25T00:44:49;99048.81;;;24.19;45.93
59063;BME280;44851;45.648;9.004;2022-08-25T00:47:15;99045.78;;;24.15;45.85
59063;BME280;44851;45.648;9.004;2022-08-25T00:49:55;99044.38;;;24.12;45.56
59063;BME280;44851;45.648;9.004;2022-08-25T00:54:58;99036.47;;;24.06;45.68
59063;BME280;44851;45.648;9.004;2022-08-25T00:57:30;99034.84;;;24.05;46.04
59063;BME280;44851;45.648;9.004;2022-08-25T00:59:57;99033.25;;;24.04;46.30
59063;BME280;44851;45.648;9.004;2022-08-25T01:02:23;99030.09;;;24.07;45.92
59063;BME280;44851;45.648;9.004;2022-08-25T01:04:49;99035.66;;;24.05;45.72
59063;BME280;44851;45.648;9.004;2022-08-25T01:07:16;99034.84;;;24.05;46.04
59063;BME280;44851;45.648;9.004;2022-08-25T01:09:43;99033.78;;;23.94;46.04
59063;BME280;44851;45.648;9.004;2022-08-25T01:12:10;99036.50;;;23.87;46.65
59063;BME280;44851;45.648;9.004;2022-08-25T01:14:36;99030.91;;;23.77;46.30
59063;BME280;44851;45.648;9.004;2022-08-25T01:17:02;99028.56;;;23.81;46.02
59063;BME280;44851;45.648;9.004;2022-08-25T01:19:28;99031.38;;;23.86;45.90
59063;BME280;44851;45.648;9.004;2022-08-25T01:21:54;99036.34;;;23.82;46.26
59063;BME280;44851;45.648;9.004;2022-08-25T01:24:53;99034.00;;;23.74;46.32
59063;BME280;44851;45.648;9.004;2022-08-25T01:27:20;99026.47;;;23.71;46.20
59063;BME280;44851;45.648;9.004;2022-08-25T01:29:46;99019.06;;;23.73;46.10
59063;BME280;44851;45.648;9.004;2022-08-25T01:32:12;99024.53;;;23.78;46.19
59063;BME280;44851;45.648;9.004;2022-08-25T01:34:40;99019.41;;;23.95;45.49
59063;BME280;44851;45.648;9.004;2022-08-25T01:37:08;99027.34;;;23.83;45.58
59063;BME280;44851;45.648;9.004;2022-08-25T01:39:34;99030.81;;;23.84;45.49
59063;BME280;44851;45.648;9.004;2022-08-25T01:44:32;99027.19;;;23.78;46.32
59063;BME280;44851;45.648;9.004;2022-08-25T01:47:00;99034.00;;;23.74;46.35
59063;BME280;44851;45.648;9.004;2022-08-25T01:49:25;99039.03;;;23.64;46.14
59063;BME280;44851;45.648;9.004;2022-08-25T01:51:56;99040.06;;;23.63;46.58
59063;BME280;44851;45.648;9.004;2022-08-25T01:54:24;99043.53;;;23.63;45.99
59063;BME280;44851;45.648;9.004;2022-08-25T01:56:49;99043.53;;;23.63;46.57
59063;BME280;44851;45.648;9.004;2022-08-25T01:59:17;99038.31;;;23.57;46.23
59063;BME280;44851;45.648;9.004;2022-08-25T02:01:43;99040.91;;;23.45;46.79
59063;BME280;44851;45.648;9.004;2022-08-25T02:04:08;99033.59;;;23.41;46.78
59063;BME280;44851;45.648;9.004;2022-08-25T02:06:34;99036.63;;;23.44;47.41
59063;BME280;44851;45.648;9.004;2022-08-25T02:09:12;99039.63;;;23.48;47.20
59063;BME280;44851;45.648;9.004;2022-08-25T02:11:40;99038.44;;;23.44;47.34
59063;BME280;44851;45.648;9.004;2022-08-25T02:14:06;99031.50;;;23.43;46.79
59063;BME280;44851;45.648;9.004;2022-08-25T02:16:35;99031.22;;;23.32;47.42
59063;BME280;44851;45.648;9.004;2022-08-25T02:19:02;99033.72;;;23.27;47.16
59063;BME280;44851;45.648;9.004;2022-08-25T02:21:28;99036.19;;;23.22;47.59
59063;BME280;44851;45.648;9.004;2022-08-25T02:23:54;99041.69;;;23.27;47.44
59063;BME280;44851;45.648;9.004;2022-08-25T02:26:19;99036.84;;;23.24;47.22
59063;BME280;44851;45.648;9.004;2022-08-25T02:28:46;99037.84;;;23.23;47.20
59063;BME280;44851;45.648;9.004;2022-08-25T02:31:12;99025.63;;;23.16;47.54
59063;BME280;44851;45.648;9.004;2022-08-25T02:33:38;99034.56;;;23.21;47.75
59063;BME280;44851;45.648;9.004;2022-08-25T02:36:04;99023.19;;;23.14;47.47
59063;BME280;44851;45.648;9.004;2022-08-25T02:38:30;99024.81;;;23.15;47.73
59063;BME280;44851;45.648;9.004;2022-08-25T02:40:56;99033.53;;;23.22;47.26
59063;BME280;44851;45.648;9.004;2022-08-25T02:43:23;99033.75;;;23.21;47.33
59063;BME280;44851;45.648;9.004;2022-08-25T02:45:50;99027.06;;;23.18;47.38
59063;BME280;44851;45.648;9.004;2022-08-25T02:48:16;99037.97;;;23.10;47.81
59063;BME280;44851;45.648;9.004;2022-08-25T02:50:45;99034.72;;;23.08;47.95
59063;BME280;44851;45.648;9.004;2022-08-25T02:53:11;99044.53;;;23.07;47.70
59063;BME280;44851;45.648;9.004;2022-08-25T02:55:36;99034.50;;;23.09;47.27
59063;BME280;44851;45.648;9.004;2022-08-25T02:58:02;99040.63;;;23.10;47.61
59063;BME280;44851;45.648;9.004;2022-08-25T03:00:27;99040.22;;;23.06;47.45
59063;BME280;44851;45.648;9.004;2022-08-25T03:02:52;99041.34;;;22.99;47.54
59063;BME280;44851;45.648;9.004;2022-08-25T03:05:18;99044.59;;;23.01;47.47
59063;BME280;44851;45.648;9.004;2022-08-25T03:07:43;99038.53;;;22.94;47.55
59063;BME280;44851;45.648;9.004;2022-08-25T03:10:15;99040.63;;;22.85;47.34
59063;BME280;44851;45.648;9.004;2022-08-25T03:12:42;99040.88;;;22.83;47.60
59063;BME280;44851;45.648;9.004;2022-08-25T03:15:11;99032.38;;;22.75;47.52
59063;BME280;44851;45.648;9.004;2022-08-25T03:17:37;99032.00;;;22.90;47.34
59063;BME280;44851;45.648;9.004;2022-08-25T03:20:04;99032.16;;;22.95;47.78
59063;BME280;44851;45.648;9.004;2022-08-25T03:22:30;99036.44;;;22.96;47.63
59063;BME280;44851;45.648;9.004;2022-08-25T03:24:56;99025.16;;;22.82;47.94
59063;BME280;44851;45.648;9.004;2022-08-25T03:27:41;99019.59;;;22.83;48.13
59063;BME280;44851;45.648;9.004;2022-08-25T03:30:07;99015.75;;;22.79;48.20
59063;BME280;44851;45.648;9.004;2022-08-25T03:32:32;99017.44;;;22.74;48.40
59063;BME280;44851;45.648;9.004;2022-08-25T03:34:58;99012.09;;;22.80;48.44
59063;BME280;44851;45.648;9.004;2022-08-25T03:37:25;99016.91;;;22.65;49.19
59063;BME280;44851;45.648;9.004;2022-08-25T03:39:51;99010.56;;;22.66;48.63
59063;BME280;44851;45.648;9.004;2022-08-25T03:42:16;99014.63;;;22.69;48.47
59063;BME280;44851;45.648;9.004;2022-08-25T03:44:42;99004.78;;;22.69;48.34
59063;BME280;44851;45.648;9.004;2022-08-25T03:47:07;99008.22;;;22.76;48.64
59063;BME280;44851;45.648;9.004;2022-08-25T03:49:32;99010.50;;;22.73;48.09
59063;BME280;44851;45.648;9.004;2022-08-25T03:51:58;99008.94;;;22.65;48.38
59063;BME280;44851;45.648;9.004;2022-08-25T03:54:24;99000.81;;;22.60;48.89
59063;BME280;44851;45.648;9.004;2022-08-25T03:56:50;98994.63;;;22.66;48.86
59063;BME280;44851;45.648;9.004;2022-08-25T03:59:16;98994.63;;;22.66;48.76
59063;BME280;44851;45.648;9.004;2022-08-25T04:01:43;98991.66;;;22.74;48.70
59063;BME280;44851;45.648;9.004;2022-08-25T04:04:11;98993.75;;;22.72;48.48
59063;BME280;44851;45.648;9.004;2022-08-25T04:06:38;98989.72;;;22.63;49.17
59063;BME280;44851;45.648;9.004;2022-08-25T04:09:04;98994.63;;;22.66;48.52
59063;BME280;44851;45.648;9.004;2022-08-25T04:11:29;98999.19;;;22.59;48.68
59063;BME280;44851;45.648;9.004;2022-08-25T04:13:59;98998.16;;;22.60;48.83
59063;BME280;44851;45.648;9.004;2022-08-25T04:16:28;98997.13;;;22.61;48.73
59063;BME280;44851;45.648;9.004;2022-08-25T04:18:56;98989.38;;;22.53;48.69
59063;BME280;44851;45.648;9.004;2022-08-25T04:21:23;98982.41;;;22.58;49.16
59063;BME280;44851;45.648;9.004;2022-08-25T04:23:49;98979.09;;;22.63;48.96
59063;BME280;44851;45.648;9.004;2022-08-25T04:28:43;98991.81;;;22.61;49.21
59063;BME280;44851;45.648;9.004;2022-08-25T04:31:10;98994.63;;;22.66;49.30
59063;BME280;44851;45.648;9.004;2022-08-25T04:33:37;98997.94;;;22.62;48.89
59063;BME280;44851;45.648;9.004;2022-08-25T04:36:06;98993.00;;;22.65;48.92
59063;BME280;44851;45.648;9.004;2022-08-25T04:38:32;98993.88;;;22.59;49.28
59063;BME280;44851;45.648;9.004;2022-08-25T04:40:59;98991.22;;;22.59;49.47
59063;BME280;44851;45.648;9.004;2022-08-25T04:43:25;98985.28;;;22.57;49.12
59063;BME280;44851;45.648;9.004;2022-08-25T04:45:51;98983.25;;;22.52;49.65
59063;BME280;44851;45.648;9.004;2022-08-25T04:48:17;98981.00;;;22.56;49.36
59063;BME280;44851;45.648;9.004;2022-08-25T04:50:42;98984.19;;;22.40;49.98
59063;BME280;44851;45.648;9.004;2022-08-25T04:53:09;98985.81;;;22.41;50.45
59063;BME280;44851;45.648;9.004;2022-08-25T04:55:45;98980.88;;;22.44;50.23
59063;BME280;44851;45.648;9.004;2022-08-25T04:58:12;98980.06;;;22.44;50.13
59063;BME280;44851;45.648;9.004;2022-08-25T05:00:40;98970.63;;;22.48;50.39
59063;BME280;44851;45.648;9.004;2022-08-25T05:03:06;98971.28;;;22.43;50.35
59063;BME280;44851;45.648;9.004;2022-08-25T05:05:35;98969.06;;;22.40;50.29
59063;BME280;44851;45.648;9.004;2022-08-25T05:08:01;98967.06;;;22.36;50.57
59063;BME280;44851;45.648;9.004;2022-08-25T05:10:27;98965.31;;;22.48;50.36
59063;BME280;44851;45.648;9.004;2022-08-25T05:12:52;98964.94;;;22.44;50.21
59063;BME280;44851;45.648;9.004;2022-08-25T05:15:17;98968.56;;;22.50;50.54
59063;BME280;44851;45.648;9.004;2022-08-25T05:18:02;98969.22;;;22.45;50.52
59063;BME280;44851;45.648;9.004;2022-08-25T05:20:27;98966.78;;;22.44;50.90
59063;BME280;44851;45.648;9.004;2022-08-25T05:22:55;98973.94;;;22.43;51.29
59063;BME280;44851;45.648;9.004;2022-08-25T05:25:20;98974.16;;;22.42;51.38
59063;BME280;44851;45.648;9.004;2022-08-25T05:27:46;98972.91;;;22.44;51.03
59063;BME280;44851;45.648;9.004;2022-08-25T05:30:11;98974.94;;;22.49;51.33
59063;BME280;44851;45.648;9.004;2022-08-25T05:32:37;98971.06;;;22.45;50.35
59063;BME280;44851;45.648;9.004;2022-08-25T05:35:04;98970.47;;;22.43;51.10
59063;BME280;44851;45.648;9.004;2022-08-25T05:37:29;98976.78;;;22.48;51.03
59063;BME280;44851;45.648;9.004;2022-08-25T05:39:55;98966.63;;;22.39;51.68
59063;BME280;44851;45.648;9.004;2022-08-25T05:42:20;98965.44;;;22.35;51.75
59063;BME280;44851;45.648;9.004;2022-08-25T05:44:46;98966.34;;;22.47;51.81
59063;BME280;44851;45.648;9.004;2022-08-25T05:47:12;98964.56;;;22.41;51.83
59063;BME280;44851;45.648;9.004;2022-08-25T05:49:37;98969.38;;;22.50;51.56
59063;BME280;44851;45.648;9.004;2022-08-25T05:52:03;98967.72;;;22.56;51.94
59063;BME280;44851;45.648;9.004;2022-08-25T05:54:28;98966.56;;;22.45;51.77
59063;BME280;44851;45.648;9.004;2022-08-25T05:56:55;98965.16;;;22.43;52.54
59063;BME280;44851;45.648;9.004;2022-08-25T05:59:21;98964.88;;;22.51;52.18
59063;BME280;44851;45.648;9.004;2022-08-25T06:01:47;98971.19;;;22.56;52.21
59063;BME280;44851;45.648;9.004;2022-08-25T06:04:30;98966.44;;;22.65;52.22
59063;BME280;44851;45.648;9.004;2022-08-25T06:06:56;98963.78;;;22.65;52.56
59063;BME280;44851;45.648;9.004;2022-08-25T06:09:22;98966.38;;;22.72;52.38
59063;BME280;44851;45.648;9.004;2022-08-25T06:11:48;98964.81;;;22.64;52.97
59063;BME280;44851;45.648;9.004;2022-08-25T06:14:14;98968.94;;;22.78;51.89
59063;BME280;44851;45.648;9.004;2022-08-25T06:16:39;98967.50;;;22.82;52.55
59063;BME280;44851;45.648;9.004;2022-08-25T06:19:06;98968.31;;;23.01;52.52
59063;BME280;44851;45.648;9.004;2022-08-25T06:21:32;98968.84;;;23.10;52.42
59063;BME280;44851;45.648;9.004;2022-08-25T06:23:58;98971.53;;;23.28;51.98
59063;BME280;44851;45.648;9.004;2022-08-25T06:26:23;98966.03;;;23.42;52.44
59063;BME280;44851;45.648;9.004;2022-08-25T06:28:49;98967.84;;;23.59;51.30
59063;BME280;44851;45.648;9.004;2022-08-25T06:31:15;98963.63;;;23.70;50.63
59063;BME280;44851;45.648;9.004;2022-08-25T06:33:41;98964.78;;;23.74;50.70
59063;BME280;44851;45.648;9.004;2022-08-25T06:36:07;98954.59;;;24.01;49.17
59063;BME280;44851;45.648;9.004;2022-08-25T06:38:32;98952.63;;;23.97;48.39
59063;BME280;44851;45.648;9.004;2022-08-25T06:41:04;98950.34;;;24.12;48.26
59063;BME280;44851;45.648;9.004;2022-08-25T06:43:30;98945.88;;;24.24;48.20
59063;BME280;44851;45.648;9.004;2022-08-25T06:45:57;98939.50;;;24.13;48.07
59063;BME280;44851;45.648;9.004;2022-08-25T06:48:23;98944.72;;;24.32;47.78
59063;BME280;44851;45.648;9.004;2022-08-25T06:50:48;98941.00;;;24.33;47.76
59063;BME280;44851;45.648;9.004;2022-08-25T06:53:14;98945.66;;;24.37;47.76
59063;BME280;44851;45.648;9.004;2022-08-25T06:55:39;98941.38;;;24.36;47.66
59063;BME280;44851;45.648;9.004;2022-08-25T06:58:06;98945.88;;;24.36;48.68
59063;BME280;44851;45.648;9.004;2022-08-25T07:00:32;98948.09;;;24.51;47.29
59063;BME280;44851;45.648;9.004;2022-08-25T07:02:58;98952.75;;;24.67;47.80
59063;BME280;44851;45.648;9.004;2022-08-25T07:05:25;98949.59;;;24.47;48.52
59063;BME280;44851;45.648;9.004;2022-08-25T07:07:50;98943.47;;;24.58;48.25
59063;BME280;44851;45.648;9.004;2022-08-25T07:10:16;98938.34;;;24.45;48.23
59063;BME280;44851;45.648;9.004;2022-08-25T07:12:41;98940.31;;;24.37;47.70
59063;BME280;44851;45.648;9.004;2022-08-25T07:15:07;98949.47;;;24.42;48.07
59063;BME280;44851;45.648;9.004;2022-08-25T07:17:32;98950.63;;;24.46;48.47
59063;BME280;44851;45.648;9.004;2022-08-25T07:19:58;98953.44;;;24.51;47.80
59063;BME280;44851;45.648;9.004;2022-08-25T07:22:23;98951.44;;;24.46;47.30
59063;BME280;44851;45.648;9.004;2022-08-25T07:24:49;98950.59;;;24.34;49.00
59063;BME280;44851;45.648;9.004;2022-08-25T07:27:14;98952.25;;;24.47;48.28
59063;BME280;44851;45.648;9.004;2022-08-25T07:29:40;98938.34;;;24.33;48.15
59063;BME280;44851;45.648;9.004;2022-08-25T07:32:05;98946.94;;;24.47;47.21
59063;BME280;44851;45.648;9.004;2022-08-25T07:34:31;98932.81;;;24.58;46.74
59063;BME280;44851;45.648;9.004;2022-08-25T07:37:16;98940.56;;;24.59;47.57
59063;BME280;44851;45.648;9.004;2022-08-25T07:39:41;98944.28;;;24.58;48.37
59063;BME280;44851;45.648;9.004;2022-08-25T07:42:07;98945.34;;;24.69;46.72
59063;BME280;44851;45.648;9.004;2022-08-25T07:44:33;98946.38;;;24.80;46.54
59063;BME280;44851;45.648;9.004;2022-08-25T07:46:59;98949.25;;;24.90;46.85
59063;BME280;44851;45.648;9.004;2022-08-25T07:49:25;98947.41;;;24.90;46.96
59063;BME280;44851;45.648;9.004;2022-08-25T07:51:51;98950.63;;;24.92;48.02
59063;BME280;44851;45.648;9.004;2022-08-25T07:54:18;98943.34;;;25.00;47.09
59063;BME280;44851;45.648;9.004;2022-08-25T07:56:44;98938.69;;;25.07;45.60
59063;BME280;44851;45.648;9.004;2022-08-25T07:59:09;98934.03;;;25.26;45.12
59063;BME280;44851;45.648;9.004;2022-08-25T08:01:35;98936.16;;;25.40;44.31
59063;BME280;44851;45.648;9.004;2022-08-25T08:04:01;98931.06;;;25.67;44.39
59063;BME280;44851;45.648;9.004;2022-08-25T08:06:26;98931.97;;;26.02;42.88
59063;BME280;44851;45.648;9.004;2022-08-25T08:08:53;98937.75;;;26.27;42.36
59063;BME280;44851;45.648;9.004;2022-08-25T08:11:26;98938.63;;;26.50;41.75
59063;BME280;44851;45.648;9.004;2022-08-25T08:13:54;98931.53;;;26.77;41.50
59063;BME280;44851;45.648;9.004;2022-08-25T08:16:22;98935.16;;;26.88;40.01
59063;BME280;44851;45.648;9.004;2022-08-25T08:18:48;98933.09;;;27.12;40.73
59063;BME280;44851;45.648;9.004;2022-08-25T08:21:19;98930.75;;;27.42;40.16
59063;BME280;44851;45.648;9.004;2022-08-25T08:23:46;98933.53;;;27.52;39.04
59063;BME280;44851;45.648;9.004;2022-08-25T08:26:12;98935.59;;;27.67;38.18
59063;BME280;44851;45.648;9.004;2022-08-25T08:28:38;98933.94;;;27.88;39.75
59063;BME280;44851;45.648;9.004;2022-08-25T08:31:03;98927.84;;;27.98;37.90
59063;BME280;44851;45.648;9.004;2022-08-25T08:33:29;98935.84;;;28.20;38.05
59063;BME280;44851;45.648;9.004;2022-08-25T08:36:00;98937.03;;;28.34;38.29
59063;BME280;44851;45.648;9.004;2022-08-25T08:38:26;98939.59;;;28.56;38.35
59063;BME280;44851;45.648;9.004;2022-08-25T08:43:44;98940.97;;;28.64;36.67
59063;BME280;44851;45.648;9.004;2022-08-25T08:46:12;98929.72;;;28.67;36.80
59063;BME280;44851;45.648;9.004;2022-08-25T08:49:01;98938.75;;;28.93;36.96
59063;BME280;44851;45.648;9.004;2022-08-25T08:51:32;98946.03;;;29.08;37.15
59063;BME280;44851;45.648;9.004;2022-08-25T08:54:18;98938.66;;;29.40;37.24
59063;BME280;44851;45.648;9.004;2022-08-25T08:56:55;98932.75;;;29.38;36.16
59063;BME280;44851;45.648;9.004;2022-08-25T08:59:26;98932.44;;;29.29;34.31
59063;BME280;44851;45.648;9.004;2022-08-25T09:01:57;98936.56;;;29.52;36.05
59063;BME280;44851;45.648;9.004;2022-08-25T09:04:37;98937.13;;;29.60;34.31
59063;BME280;44851;45.648;9.004;2022-08-25T09:07:14;98928.28;;;29.84;35.92
59063;BME280;44851;45.648;9.004;2022-08-25T09:09:42;98918.91;;;30.02;35.73
59063;BME280;44851;45.648;9.004;2022-08-25T09:12:25;98923.22;;;30.08;33.84
59063;BME280;44851;45.648;9.004;2022-08-25T09:31:15;98907.34;;;30.27;32.36
59063;BME280;44851;45.648;9.004;2022-08-25T09:33:41;98907.56;;;30.56;33.65
59063;BME280;44851;45.648;9.004;2022-08-25T09:36:06;98907.53;;;30.72;33.51
59063;BME280;44851;45.648;9.004;2022-08-25T09:38:32;98906.13;;;30.84;33.19
59063;BME280;44851;45.648;9.004;2022-08-25T09:40:59;98894.53;;;30.99;32.39
59063;BME280;44851;45.648;9.004;2022-08-25T09:43:30;98891.28;;;31.07;31.11
59063;BME280;44851;45.648;9.004;2022-08-25T09:48:48;98890.25;;;30.98;30.32
59063;BME280;44851;45.648;9.004;2022-08-25T09:53:52;98879.34;;;31.24;30.26
59063;BME280;44851;45.648;9.004;2022-08-25T09:56:21;98879.38;;;31.19;31.29
59063;BME280;44851;45.648;9.004;2022-08-25T09:58:47;98887.06;;;31.46;31.17
59063;BME280;44851;45.648;9.004;2022-08-25T10:01:19;98878.13;;;31.50;30.73
59063;BME280;44851;45.648;9.004;2022-08-25T10:04:03;98872.34;;;31.28;29.82
59063;BME280;44851;45.648;9.004;2022-08-25T10:06:34;98880.91;;;31.35;30.06
59063;BME280;44851;45.648;9.004;2022-08-25T10:09:05;98867.44;;;31.35;29.95
59063;BME280;44851;45.648;9.004;2022-08-25T10:11:41;98878.53;;;31.28;29.36
59063;BME280;44851;45.648;9.004;2022-08-25T10:14:16;98873.75;;;31.64;29.95
59063;BME280;44851;45.648;9.004;2022-08-25T10:16:43;98872.50;;;31.86;29.87
59063;BME280;44851;45.648;9.004;2022-08-25T10:19:09;98870.97;;;31.70;29.31
59063;BME280;44851;45.648;9.004;2022-08-25T10:21:37;98866.66;;;32.08;28.52
59063;BME280;44851;45.648;9.004;2022-08-25T10:24:04;98861.56;;;32.01;27.10
59063;BME280;44851;45.648;9.004;2022-08-25T10:32:26;98842.25;;;31.89;27.12
59063;BME280;44851;45.648;9.004;2022-08-25T10:35:04;98839.91;;;32.11;26.82
59063;BME280;44851;45.648;9.004;2022-08-25T10:40:58;98825.91;;;32.09;27.08
59063;BME280;44851;45.648;9.004;2022-08-25T10:46:59;98820.63;;;32.52;27.01
59063;BME280;44851;45.648;9.004;2022-08-25T10:49:40;98816.97;;;32.38;27.08
59063;BME280;44851;45.648;9.004;2022-08-25T10:52:20;98820.13;;;32.69;27.40
59063;BME280;44851;45.648;9.004;2022-08-25T10:55:09;98812.22;;;32.78;26.67
59063;BME280;44851;45.648;9.004;2022-08-25T10:57:58;98810.22;;;32.40;26.18
59063;BME280;44851;45.648;9.004;2022-08-25T11:00:31;98805.06;;;32.87;27.36
59063;BME280;44851;45.648;9.004;2022-08-25T11:05:50;98797.88;;;33.01;26.56
59063;BME280;44851;45.648;9.004;2022-08-25T11:08:35;98798.03;;;32.86;26.37
59063;BME280;44851;45.648;9.004;2022-08-25T11:16:17;98791.81;;;33.09;26.45
59063;BME280;44851;45.648;9.004;2022-08-25T11:18:50;98787.19;;;32.91;25.97
59063;BME280;44851;45.648;9.004;2022-08-25T11:21:37;98779.84;;;32.97;25.81
59063;BME280;44851;45.648;9.004;2022-08-25T11:24:20;98784.13;;;33.16;25.90
59063;BME280;44851;45.648;9.004;2022-08-25T11:26:54;98782.97;;;33.23;25.88
59063;BME280;44851;45.648;9.004;2022-08-25T11:29:21;98769.22;;;33.38;25.55
59063;BME280;44851;45.648;9.004;2022-08-25T11:31:51;98769.50;;;33.55;25.84
59063;BME280;44851;45.648;9.004;2022-08-25T11:34:17;98762.13;;;33.42;26.40
59063;BME280;44851;45.648;9.004;2022-08-25T11:36:52;98758.31;;;33.62;25.54
59063;BME280;44851;45.648;9.004;2022-08-25T11:50:06;98747.75;;;33.93;23.75
59063;BME280;44851;45.648;9.004;2022-08-25T11:57:39;98737.72;;;34.35;25.03
59063;BME280;44851;45.648;9.004;2022-08-25T12:13:50;98733.72;;;34.60;23.70
59063;BME280;44851;45.648;9.004;2022-08-25T12:21:55;98730.22;;;34.59;23.63
59063;BME280;44851;45.648;9.004;2022-08-25T12:41:08;98712.69;;;34.43;23.85
59063;BME280;44851;45.648;9.004;2022-08-25T12:43:37;98705.97;;;34.77;23.54
59063;BME280;44851;45.648;9.004;2022-08-25T12:59:55;98699.91;;;34.93;22.60
59063;BME280;44851;45.648;9.004;2022-08-25T13:10:53;98690.88;;;34.98;22.43
59063;BME280;44851;45.648;9.004;2022-08-25T13:16:14;98691.78;;;34.93;22.81
59063;BME280;44851;45.648;9.004;2022-08-25T13:18:40;98702.75;;;34.88;22.26
59063;BME280;44851;45.648;9.004;2022-08-25T13:23:35;98690.13;;;35.29;23.69
59063;BME280;44851;45.648;9.004;2022-08-25T13:26:02;98679.66;;;35.13;22.23
59063;BME280;44851;45.648;9.004;2022-08-25T13:28:31;98683.75;;;35.02;22.51
59063;BME280;44851;45.648;9.004;2022-08-25T13:31:04;98679.69;;;34.91;21.67
59063;BME280;44851;45.648;9.004;2022-08-25T13:33:31;98673.03;;;34.97;21.83
59063;BME280;44851;45.648;9.004;2022-08-25T13:35:59;98661.50;;;35.14;22.56
59063;BME280;44851;45.648;9.004;2022-08-25T13:38:45;98672.00;;;35.07;21.94
59063;BME280;44851;45.648;9.004;2022-08-25T13:41:17;98672.66;;;35.35;22.36
59063;BME280;44851;45.648;9.004;2022-08-25T13:43:43;98671.19;;;35.06;22.39
59063;BME280;44851;45.648;9.004;2022-08-25T13:46:08;98662.94;;;35.34;23.23
59063;BME280;44851;45.648;9.004;2022-08-25T13:48:38;98656.53;;;35.07;22.36
59063;BME280;44851;45.648;9.004;2022-08-25T13:51:25;98653.44;;;35.22;21.04
59063;BME280;44851;45.648;9.004;2022-08-25T13:56:25;98657.13;;;35.04;22.23
59063;BME280;44851;45.648;9.004;2022-08-25T13:58:52;98650.19;;;34.89;21.70
59063;BME280;44851;45.648;9.004;2022-08-25T14:01:21;98653.09;;;34.93;20.67
59063;BME280;44851;45.648;9.004;2022-08-25T14:03:49;98658.84;;;34.78;21.53
59063;BME280;44851;45.648;9.004;2022-08-25T14:11:29;98645.19;;;34.83;22.36
59063;BME280;44851;45.648;9.004;2022-08-25T14:17:01;98646.31;;;35.04;22.33
59063;BME280;44851;45.648;9.004;2022-08-25T14:19:27;98649.34;;;34.44;22.28
59063;BME280;44851;45.648;9.004;2022-08-25T14:21:53;98643.34;;;34.47;22.63
59063;BME280;44851;45.648;9.004;2022-08-25T14:24:23;98643.59;;;34.82;24.92
59063;BME280;44851;45.648;9.004;2022-08-25T14:26:48;98643.69;;;34.54;22.26
59063;BME280;44851;45.648;9.004;2022-08-25T14:29:15;98641.34;;;34.84;23.32
59063;BME280;44851;45.648;9.004;2022-08-25T14:31:44;98642.00;;;34.81;23.29
59063;BME280;44851;45.648;9.004;2022-08-25T14:34:36;98644.69;;;34.58;23.09
59063;BME280;44851;45.648;9.004;2022-08-25T14:37:19;98641.09;;;34.49;23.41
59063;BME280;44851;45.648;9.004;2022-08-25T14:39:45;98646.88;;;34.56;22.86
59063;BME280;44851;45.648;9.004;2022-08-25T14:42:11;98638.03;;;34.42;22.71
59063;BME280;44851;45.648;9.004;2022-08-25T14:44:37;98626.47;;;34.50;23.25
59063;BME280;44851;45.648;9.004;2022-08-25T14:47:04;98634.81;;;34.40;22.86
59063;BME280;44851;45.648;9.004;2022-08-25T14:49:34;98637.13;;;34.33;22.95
59063;BME280;44851;45.648;9.004;2022-08-25T14:52:07;98630.03;;;34.23;22.90
59063;BME280;44851;45.648;9.004;2022-08-25T14:54:33;98625.31;;;34.29;24.24
59063;BME280;44851;45.648;9.004;2022-08-25T14:56:59;98619.31;;;34.18;23.68
59063;BME280;44851;45.648;9.004;2022-08-25T14:59:24;98627.16;;;34.06;23.29
59063;BME280;44851;45.648;9.004;2022-08-25T15:01:51;98626.03;;;34.20;23.53
59063;BME280;44851;45.648;9.004;2022-08-25T15:04:19;98617.72;;;34.17;24.35
59063;BME280;44851;45.648;9.004;2022-08-25T15:06:50;98615.72;;;34.09;23.55
59063;BME280;44851;45.648;9.004;2022-08-25T15:09:18;98611.94;;;34.10;23.53
59063;BME280;44851;45.648;9.004;2022-08-25T15:11:47;98611.34;;;33.85;24.09
59063;BME280;44851;45.648;9.004;2022-08-25T15:14:14;98613.34;;;33.52;23.84
59063;BME280;44851;45.648;9.004;2022-08-25T15:16:43;98615.84;;;33.49;23.63
59063;BME280;44851;45.648;9.004;2022-08-25T15:19:12;98605.69;;;33.27;23.55
59063;BME280;44851;45.648;9.004;2022-08-25T15:21:42;98603.09;;;33.22;24.03
59063;BME280;44851;45.648;9.004;2022-08-25T15:24:09;98605.28;;;33.19;25.02
59063;BME280;44851;45.648;9.004;2022-08-25T15:26:39;98602.47;;;33.11;24.30
59063;BME280;44851;45.648;9.004;2022-08-25T15:29:06;98603.09;;;33.22;24.61